Time;durP1;ratioP1;P1;durP2;ratioP2;P2;SDS_P1;SDS_P2;PMS_P1;PMS_P2;Temp;Humidity;BMP_temperature;BMP_pressure;BME280_temperature;BME280_humidity;BME280_pressure;Samples;Min_cycle;Max_cycle;Signal;HPM_P1;HPM_P2
2023/08/04 00:00:10;;;;;;;4.17;1.90;;;25.80;55.40;;;;;;4957639;28;20030;-79
2023/08/04 00:02:39;;;;;;;5.18;2.47;;;25.80;55.50;;;;;;4955418;29;20039;-79
2023/08/04 00:05:06;;;;;;;7.93;2.88;;;25.80;55.50;;;;;;4940848;29;20031;-79
2023/08/04 00:07:33;;;;;;;7.43;1.80;;;25.80;55.30;;;;;;4958906;28;20062;-80
2023/08/04 00:09:59;;;;;;;7.53;1.98;;;25.80;55.50;;;;;;4969541;28;20094;-78
2023/08/04 00:12:25;;;;;;;5.43;1.70;;;25.80;55.60;;;;;;4956589;29;20055;-79
2023/08/04 00:14:51;;;;;;;6.70;2.08;;;25.70;55.90;;;;;;4958289;28;20039;-77
2023/08/04 00:17:17;;;;;;;5.22;2.03;;;25.80;56.20;;;;;;4955001;29;20028;-80
2023/08/04 00:19:43;;;;;;;5.93;1.73;;;25.70;56.00;;;;;;4956660;28;20086;-78
2023/08/04 00:22:09;;;;;;;6.53;2.13;;;25.60;56.40;;;;;;4958241;28;20482;-78
2023/08/04 00:24:35;;;;;;;5.43;1.80;;;25.60;56.50;;;;;;4958533;28;20042;-79
2023/08/04 00:27:02;;;;;;;6.20;1.83;;;25.50;56.80;;;;;;4959254;29;20027;-79
2023/08/04 00:29:28;;;;;;;5.53;1.88;;;25.40;56.90;;;;;;4954444;29;20028;-78
2023/08/04 00:31:54;;;;;;;6.70;2.47;;;25.40;57.30;;;;;;4955850;29;20099;-79
2023/08/04 00:34:21;;;;;;;5.47;2.08;;;25.30;57.00;;;;;;4969816;28;20082;-79
2023/08/04 00:36:48;;;;;;;5.15;2.20;;;25.30;56.80;;;;;;4958443;28;20502;-78
2023/08/04 00:39:15;;;;;;;7.97;2.20;;;25.30;56.10;;;;;;4957569;29;20031;-79
2023/08/04 00:41:41;;;;;;;6.15;1.90;;;25.30;56.20;;;;;;4953483;29;20222;-79
2023/08/04 00:44:08;;;;;;;9.00;1.52;;;25.20;55.90;;;;;;4935967;29;20086;-78
2023/08/04 00:46:35;;;;;;;4.75;1.80;;;25.20;56.20;;;;;;4937781;29;20487;-78
2023/08/04 00:49:02;;;;;;;5.13;1.52;;;25.20;55.90;;;;;;4935744;29;20053;-80
2023/08/04 00:51:31;;;;;;;9.70;2.35;;;25.10;56.00;;;;;;4938598;29;20031;-78
2023/08/04 00:53:58;;;;;;;6.88;1.80;;;25.10;55.40;;;;;;4937358;29;20110;-78
2023/08/04 00:56:23;;;;;;;;;;;25.10;55.60;;;;;;4938157;29;20028;-78
2023/08/04 00:58:49;;;;;;;5.38;1.77;;;25.10;55.50;;;;;;4951587;29;20006;-78
2023/08/04 01:01:15;;;;;;;7.13;2.33;;;25.00;55.80;;;;;;4937597;29;20027;-78
2023/08/04 01:03:42;;;;;;;8.20;1.93;;;25.00;55.30;;;;;;5004056;23;20043;-84
2023/08/04 01:06:25;;;;;;;5.30;1.98;;;25.00;55.10;;;;;;4952671;28;20066;-85
2023/08/04 01:09:29;;;;;;;4.78;1.80;;;25.00;55.30;;;;;;4971653;28;20400;-84
2023/08/04 01:12:12;;;;;;;9.80;2.33;;;24.90;55.30;;;;;;4948147;28;20043;-84
2023/08/04 01:14:42;;;;;;;5.43;1.58;;;24.90;55.40;;;;;;4969423;28;20186;-84
2023/08/04 01:17:26;;;;;;;8.27;2.10;;;24.90;55.70;;;;;;4971596;28;20120;-84
2023/08/04 01:19:52;;;;;;;5.93;1.80;;;24.80;56.30;;;;;;4987948;28;20034;-85
2023/08/04 01:22:19;;;;;;;5.32;2.00;;;24.80;56.20;;;;;;4972588;28;20031;-84
2023/08/04 01:24:45;;;;;;;3.22;1.40;;;24.80;56.40;;;;;;4967502;28;20113;-84
2023/08/04 01:27:14;;;;;;;6.80;2.10;;;24.70;56.60;;;;;;4971356;28;20193;-84
2023/08/04 01:29:44;;;;;;;5.38;2.05;;;24.70;56.50;;;;;;4972585;28;20431;-84
2023/08/04 01:32:11;;;;;;;7.50;1.85;;;24.70;56.90;;;;;;4970884;28;20026;-84
2023/08/04 01:34:37;;;;;;;5.57;2.13;;;24.70;56.70;;;;;;4972563;28;20022;-84
2023/08/04 01:37:03;;;;;;;10.40;2.60;;;24.60;56.80;;;;;;4971269;28;20045;-84
2023/08/04 01:39:29;;;;;;;9.10;2.55;;;24.60;57.00;;;;;;4968445;28;20091;-84
2023/08/04 01:41:55;;;;;;;5.50;1.90;;;24.60;57.20;;;;;;4967733;28;20535;-84
2023/08/04 01:44:20;;;;;;;5.07;2.20;;;24.50;57.60;;;;;;4969891;28;20035;-84
2023/08/04 01:46:46;;;;;;;8.47;2.40;;;24.50;57.60;;;;;;4966583;28;20409;-84
2023/08/04 01:49:12;;;;;;;4.70;1.60;;;24.40;58.00;;;;;;4961350;28;20023;-84
2023/08/04 01:51:38;;;;;;;6.67;1.67;;;24.40;57.90;;;;;;4971380;28;20027;-84
2023/08/04 01:54:03;;;;;;;10.70;2.13;;;24.30;58.30;;;;;;4950935;28;20438;-84
2023/08/04 01:56:31;;;;;;;10.10;2.10;;;24.30;58.50;;;;;;4971112;28;20069;-84
2023/08/04 01:58:57;;;;;;;5.75;2.42;;;24.30;59.00;;;;;;4971455;28;20023;-84
2023/08/04 02:01:23;;;;;;;5.87;2.07;;;24.20;59.00;;;;;;4972066;28;20030;-84
2023/08/04 02:03:49;;;;;;;8.20;2.00;;;24.20;59.00;;;;;;4967699;28;20486;-84
2023/08/04 02:06:16;;;;;;;9.98;3.60;;;24.10;59.10;;;;;;4969164;28;20062;-84
2023/08/04 02:08:41;;;;;;;7.07;2.05;;;24.10;59.40;;;;;;4968104;28;20030;-84
2023/08/04 02:11:08;;;;;;;7.50;2.27;;;24.10;59.60;;;;;;4952078;29;20031;-84
2023/08/04 02:13:34;;;;;;;6.10;1.88;;;24.00;59.80;;;;;;4962792;28;20489;-84
2023/08/04 02:15:59;;;;;;;5.07;1.87;;;24.00;59.90;;;;;;4971592;28;20042;-84
2023/08/04 02:18:26;;;;;;;5.57;1.87;;;23.90;60.10;;;;;;4971710;28;20035;-84
2023/08/04 02:20:52;;;;;;;3.78;1.80;;;23.90;60.40;;;;;;4971463;28;20417;-84
2023/08/04 02:23:18;;;;;;;4.47;1.80;;;23.80;60.70;;;;;;4970907;28;20031;-83
2023/08/04 02:25:43;;;;;;;9.57;2.27;;;23.80;61.00;;;;;;4969333;28;20035;-84
2023/08/04 02:28:09;;;;;;;6.30;2.03;;;23.70;60.90;;;;;;4971083;28;20035;-84
2023/08/04 02:30:35;;;;;;;7.27;2.03;;;23.60;60.90;;;;;;4974976;28;20401;-84
2023/08/04 02:33:01;;;;;;;5.17;1.77;;;23.60;61.20;;;;;;4973884;28;20026;-84
2023/08/04 02:35:27;;;;;;;6.83;2.63;;;23.50;61.00;;;;;;4974087;28;20038;-86
2023/08/04 02:37:52;;;;;;;6.37;1.97;;;23.50;61.10;;;;;;4975103;28;20115;-84
2023/08/04 02:40:19;;;;;;;8.77;2.27;;;23.50;61.20;;;;;;4972303;28;20553;-84
2023/08/04 02:42:44;;;;;;;8.18;1.63;;;23.50;61.30;;;;;;4990543;28;20026;-84
2023/08/04 02:45:10;;;;;;;4.73;1.70;;;23.50;61.50;;;;;;4974110;28;20040;-84
2023/08/04 02:47:36;;;;;;;9.27;2.73;;;23.50;61.70;;;;;;4974375;28;20486;-84
2023/08/04 02:50:05;;;;;;;5.57;1.73;;;23.50;61.40;;;;;;4975046;28;20035;-84
2023/08/04 02:52:31;;;;;;;6.47;2.35;;;23.50;61.70;;;;;;4974798;28;20481;-84
2023/08/04 02:54:57;;;;;;;8.40;2.05;;;23.50;61.50;;;;;;4974126;28;20037;-84
2023/08/04 02:57:23;;;;;;;7.03;1.90;;;23.40;62.30;;;;;;4971281;28;20397;-84
2023/08/04 02:59:48;;;;;;;10.47;2.33;;;23.40;61.50;;;;;;4968816;28;20035;-84
2023/08/04 03:02:14;;;;;;;7.13;2.30;;;23.40;61.70;;;;;;4973880;28;20034;-84
2023/08/04 03:04:40;;;;;;;6.87;2.20;;;23.40;61.30;;;;;;4973301;28;20085;-84
2023/08/04 03:07:06;;;;;;;12.00;3.10;;;23.40;61.30;;;;;;4974581;28;20531;-83
2023/08/04 03:09:32;;;;;;;5.82;1.88;;;23.30;61.40;;;;;;4974417;28;20072;-84
2023/08/04 03:11:58;;;;;;;10.97;2.23;;;23.30;61.80;;;;;;4973954;28;20118;-84
2023/08/04 03:14:23;;;;;;;4.47;1.50;;;23.20;62.30;;;;;;4973154;28;20027;-84
2023/08/04 03:16:52;;;;;;;11.02;2.05;;;23.10;62.20;;;;;;4975269;28;20031;-83
2023/08/04 03:19:18;;;;;;;11.98;2.22;;;23.00;62.30;;;;;;4975254;28;20030;-84
2023/08/04 03:21:44;;;;;;;10.70;2.37;;;23.10;62.30;;;;;;4975086;28;20390;-85
2023/08/04 03:24:10;;;;;;;5.40;1.38;;;23.10;62.60;;;;;;4957473;28;20567;-83
2023/08/04 03:26:35;;;;;;;6.13;2.00;;;23.10;62.60;;;;;;4974980;28;20354;-84
2023/08/04 03:29:01;;;;;;;5.40;2.07;;;23.10;62.50;;;;;;4969986;28;20023;-84
2023/08/04 03:31:27;;;;;;;5.70;2.27;;;23.10;62.60;;;;;;4959907;28;20454;-83
2023/08/04 03:33:53;;;;;;;6.33;3.30;;;23.00;62.40;;;;;;4971931;28;20027;-83
2023/08/04 03:36:19;;;;;;;6.67;2.23;;;23.00;62.50;;;;;;4974564;28;20633;-84
2023/08/04 03:38:45;;;;;;;16.70;2.33;;;23.00;62.70;;;;;;4989618;28;20048;-84
2023/08/04 03:41:10;;;;;;;4.70;2.17;;;23.00;62.70;;;;;;4973419;28;20041;-83
2023/08/04 03:43:36;;;;;;;6.83;2.00;;;22.90;62.50;;;;;;4976624;28;20034;-86
2023/08/04 03:46:02;;;;;;;10.00;2.42;;;23.00;62.60;;;;;;4960423;28;20035;-85
2023/08/04 03:48:28;;;;;;;6.20;1.80;;;23.00;62.70;;;;;;4971191;28;20098;-82
2023/08/04 03:50:54;;;;;;;4.77;2.33;;;22.90;63.10;;;;;;4970309;28;20053;-83
2023/08/04 03:53:19;;;;;;;10.53;2.37;;;22.90;62.70;;;;;;4963381;28;20109;-85
2023/08/04 03:55:45;;;;;;;9.13;3.13;;;22.90;63.10;;;;;;4972818;28;20037;-79
2023/08/04 03:58:11;;;;;;;6.50;1.97;;;22.80;63.30;;;;;;4972753;28;20035;-85
2023/08/04 04:00:37;;;;;;;5.03;2.10;;;22.90;63.60;;;;;;4974241;28;20122;-85
2023/08/04 04:03:04;;;;;;;6.50;2.17;;;22.80;63.80;;;;;;4973340;28;20158;-85
2023/08/04 04:05:30;;;;;;;6.78;1.98;;;22.80;63.60;;;;;;4972928;28;20034;-84
2023/08/04 04:07:56;;;;;;;6.25;2.03;;;22.80;64.30;;;;;;4973388;28;20053;-85
2023/08/04 04:10:22;;;;;;;9.63;1.90;;;22.80;64.50;;;;;;4973425;28;20026;-85
2023/08/04 04:12:48;;;;;;;6.30;1.90;;;22.80;64.60;;;;;;4973146;28;20519;-85
2023/08/04 04:15:13;;;;;;;9.00;2.57;;;22.80;64.80;;;;;;4973392;28;20050;-85
2023/08/04 04:17:39;;;;;;;10.23;2.55;;;22.80;65.00;;;;;;4989479;28;20035;-85
2023/08/04 04:20:06;;;;;;;9.57;3.00;;;22.70;65.50;;;;;;4973084;28;20038;-86
2023/08/04 04:22:33;;;;;;;7.45;2.30;;;22.60;65.80;;;;;;4973744;28;20058;-85
2023/08/04 04:25:00;;;;;;;7.50;2.63;;;22.60;66.00;;;;;;4973877;28;20126;-86
2023/08/04 04:27:26;;;;;;;8.18;2.80;;;22.60;66.30;;;;;;4976553;28;20031;-86
2023/08/04 04:29:52;;;;;;;17.00;4.23;;;22.60;66.30;;;;;;4995162;28;20557;-85
2023/08/04 04:32:17;;;;;;;8.23;1.97;;;22.60;65.90;;;;;;4975272;28;20397;-85
2023/08/04 04:34:43;;;;;;;8.05;3.28;;;22.60;65.90;;;;;;4973546;28;20086;-86
2023/08/04 04:37:09;;;;;;;7.73;2.00;;;22.60;65.40;;;;;;4973410;28;20030;-85
2023/08/04 04:39:35;;;;;;;8.97;2.43;;;22.70;65.70;;;;;;4989462;28;20026;-85
2023/08/04 04:42:02;;;;;;;6.40;2.23;;;22.70;65.70;;;;;;4974620;28;20402;-85
2023/08/04 04:44:28;;;;;;;7.68;2.83;;;22.70;65.80;;;;;;4972541;28;20027;-85
2023/08/04 04:46:54;;;;;;;8.80;2.90;;;22.70;65.50;;;;;;4973087;28;20034;-85
2023/08/04 04:49:20;;;;;;;10.25;2.65;;;22.70;65.80;;;;;;4972912;28;20274;-85
2023/08/04 04:51:46;;;;;;;7.03;3.08;;;22.80;65.90;;;;;;4972906;28;20119;-85
2023/08/04 04:54:12;;;;;;;7.67;2.37;;;22.80;65.90;;;;;;4972630;28;20031;-86
2023/08/04 04:56:38;;;;;;;8.17;3.00;;;22.90;66.00;;;;;;4974541;28;20023;-85
2023/08/04 04:59:04;;;;;;;6.35;3.03;;;22.90;66.10;;;;;;4973608;28;20062;-85
2023/08/04 05:01:30;;;;;;;7.77;2.03;;;22.90;65.70;;;;;;4972879;28;20222;-85
2023/08/04 05:03:56;;;;;;;6.57;2.67;;;23.00;65.60;;;;;;4974008;28;20038;-86
2023/08/04 05:06:22;;;;;;;9.73;3.10;;;23.20;65.60;;;;;;4972878;28;20090;-86
2023/08/04 05:08:48;;;;;;;10.20;2.27;;;23.20;64.60;;;;;;4973078;28;20031;-85
2023/08/04 05:11:13;;;;;;;11.75;2.58;;;23.30;64.30;;;;;;4972220;28;20030;-85
2023/08/04 05:13:42;;;;;;;9.60;2.13;;;23.30;64.50;;;;;;4972147;28;20029;-85
2023/08/04 05:16:08;;;;;;;11.25;2.60;;;23.50;64.60;;;;;;4972717;28;20563;-85
2023/08/04 05:18:36;;;;;;;10.32;2.42;;;23.50;65.10;;;;;;4988745;28;20063;-85
2023/08/04 05:21:03;;;;;;;9.43;3.10;;;23.60;64.70;;;;;;4988817;28;20027;-85
2023/08/04 05:23:28;;;;;;;12.63;2.83;;;23.60;64.70;;;;;;4972115;28;20122;-85
2023/08/04 05:25:54;;;;;;;10.60;2.50;;;23.70;65.00;;;;;;4972037;28;20537;-87
2023/08/04 05:28:30;;;;;;;10.63;2.27;;;23.70;65.50;;;;;;4972142;28;20055;-85
2023/08/04 05:30:58;;;;;;;8.20;1.98;;;23.70;64.80;;;;;;4971869;28;20034;-85
2023/08/04 05:33:25;;;;;;;5.80;2.05;;;23.80;65.10;;;;;;4971588;28;20027;-85
2023/08/04 05:35:51;;;;;;;;;;;23.90;65.50;;;;;;4988753;28;20027;-86
2023/08/04 05:38:17;;;;;;;9.18;2.20;;;23.90;65.70;;;;;;4972432;28;19961;-86
2023/08/04 05:40:44;;;;;;;8.00;2.23;;;23.90;65.70;;;;;;4971800;28;20101;-85
2023/08/04 05:43:11;;;;;;;9.85;1.80;;;24.00;66.00;;;;;;4972522;28;20034;-85
2023/08/04 05:45:38;;;;;;;;;;;24.10;65.60;;;;;;4972536;28;20042;-85
2023/08/04 05:48:04;;;;;;;8.57;3.17;;;24.20;65.40;;;;;;4971790;28;19910;-85
2023/08/04 05:50:30;;;;;;;8.77;2.72;;;24.20;65.00;;;;;;4973063;28;20031;-85
2023/08/04 05:52:57;;;;;;;9.37;2.57;;;24.30;64.60;;;;;;4973008;28;20027;-85
2023/08/04 05:55:23;;;;;;;10.77;2.78;;;24.40;64.20;;;;;;4974259;28;20114;-84
2023/08/04 05:57:50;;;;;;;15.20;2.47;;;24.40;64.10;;;;;;4975618;28;20034;-86
2023/08/04 06:00:16;;;;;;;12.50;2.28;;;24.30;64.30;;;;;;4992345;28;20047;-85
2023/08/04 06:02:44;;;;;;;8.20;2.75;;;24.40;64.60;;;;;;4975543;28;20038;-85
2023/08/04 06:05:11;;;;;;;8.45;2.80;;;24.40;64.80;;;;;;4975444;28;20441;-85
2023/08/04 06:07:37;;;;;;;;;;;24.40;65.20;;;;;;4976167;28;20027;-85
2023/08/04 06:10:03;;;;;;;14.98;2.80;;;24.40;65.90;;;;;;4975410;28;19933;-85
2023/08/04 06:12:29;;;;;;;14.63;2.72;;;24.40;65.50;;;;;;4976517;28;20027;-85
2023/08/04 06:14:55;;;;;;;11.73;3.30;;;24.50;66.00;;;;;;4975400;28;20034;-85
2023/08/04 06:17:21;;;;;;;14.50;4.53;;;24.50;66.20;;;;;;4975102;28;20521;-86
2023/08/04 06:19:47;;;;;;;12.13;3.10;;;24.50;66.60;;;;;;4975164;28;20081;-87
2023/08/04 06:22:13;;;;;;;10.73;3.27;;;24.50;66.70;;;;;;4974830;28;20046;-85
2023/08/04 06:24:39;;;;;;;12.97;4.23;;;24.60;67.30;;;;;;4974981;28;20027;-85
2023/08/04 06:27:05;;;;;;;11.90;3.83;;;24.60;68.00;;;;;;4976265;28;20031;-85
2023/08/04 06:29:31;;;;;;;11.80;3.70;;;24.60;67.80;;;;;;4975477;28;20027;-85
2023/08/04 06:31:57;;;;;;;7.93;3.92;;;24.50;68.10;;;;;;4974515;28;20023;-86
2023/08/04 06:34:23;;;;;;;16.10;3.90;;;24.50;68.80;;;;;;4974749;28;20375;-85
2023/08/04 06:36:49;;;;;;;8.40;4.10;;;24.50;69.10;;;;;;4974651;28;20292;-85
2023/08/04 06:39:15;;;;;;;17.43;4.53;;;24.50;69.40;;;;;;4974668;28;20497;-85
2023/08/04 06:41:41;;;;;;;13.43;3.90;;;24.50;69.80;;;;;;4990692;28;20041;-85
2023/08/04 06:44:07;;;;;;;10.05;4.20;;;24.50;69.70;;;;;;4975533;28;20035;-85
2023/08/04 06:46:34;;;;;;;10.53;3.87;;;24.50;70.00;;;;;;4974513;28;20461;-85
2023/08/04 06:48:59;;;;;;;16.35;4.68;;;24.60;69.90;;;;;;4974527;28;20653;-85
2023/08/04 06:51:25;;;;;;;10.03;3.80;;;24.60;70.00;;;;;;4975567;28;20505;-85
2023/08/04 06:53:51;;;;;;;19.40;4.67;;;24.50;69.70;;;;;;4992754;28;20030;-85
2023/08/04 06:56:18;;;;;;;13.60;4.00;;;24.60;69.60;;;;;;4991035;28;20031;-85
2023/08/04 06:58:45;;;;;;;11.27;4.30;;;24.70;69.50;;;;;;4974308;28;20057;-85
2023/08/04 07:01:11;;;;;;;17.00;4.73;;;24.70;69.50;;;;;;4974340;28;20062;-85
2023/08/04 07:03:37;;;;;;;8.80;3.63;;;24.80;69.60;;;;;;4990988;28;20085;-85
2023/08/04 07:06:03;;;;;;;9.43;3.47;;;24.90;69.60;;;;;;4974254;28;20081;-85
2023/08/04 07:08:29;;;;;;;9.83;4.37;;;25.00;69.60;;;;;;4973944;28;20038;-85
2023/08/04 07:10:54;;;;;;;15.23;4.23;;;25.10;69.70;;;;;;4974345;28;20162;-85
2023/08/04 09:17:34;;;;;;;9.75;2.00;;;27.20;54.70;;;;;;5902594;23;20055;-79
2023/08/04 09:20:03;;;;;;;7.47;2.75;;;27.30;55.00;;;;;;4938751;29;20409;-79
2023/08/04 09:22:31;;;;;;;9.27;2.65;;;27.50;55.40;;;;;;4921062;29;20031;-79
2023/08/04 09:25:01;;;;;;;13.07;3.15;;;27.70;55.00;;;;;;4937364;29;20054;-79
2023/08/04 09:27:41;;;;;;;8.48;2.45;;;28.00;55.80;;;;;;4937587;29;20118;-79
2023/08/04 09:30:09;;;;;;;12.88;2.28;;;28.30;54.00;;;;;;4985719;23;20098;-82
2023/08/04 09:32:46;;;;;;;10.95;2.50;;;28.60;53.70;;;;;;4958349;28;20030;-82
2023/08/04 09:35:13;;;;;;;11.40;2.40;;;28.80;52.70;;;;;;4960110;28;20482;-82
2023/08/04 09:37:39;;;;;;;9.15;2.20;;;28.90;53.10;;;;;;4942979;29;20121;-82
2023/08/04 09:40:14;;;;;;;9.60;1.95;;;29.00;51.60;;;;;;4959037;29;20039;-82
2023/08/04 09:42:41;;;;;;;10.93;2.80;;;29.00;52.00;;;;;;4958694;28;20038;-82
2023/08/04 09:45:08;;;;;;;8.77;2.15;;;29.20;51.50;;;;;;4958783;28;20067;-82
2023/08/04 09:47:34;;;;;;;10.73;3.13;;;29.20;52.20;;;;;;4959006;29;20038;-82
2023/08/04 09:50:00;;;;;;;9.15;2.03;;;29.30;51.70;;;;;;4958725;28;20023;-82
2023/08/04 09:52:30;;;;;;;5.73;1.73;;;29.40;52.30;;;;;;4958486;28;20035;-82
2023/08/04 09:54:57;;;;;;;9.30;2.53;;;29.50;51.30;;;;;;4959088;29;20274;-82
2023/08/04 09:57:23;;;;;;;7.13;2.28;;;29.60;50.40;;;;;;4958767;28;20401;-82
2023/08/04 09:59:50;;;;;;;9.18;2.45;;;29.50;49.00;;;;;;4960935;28;20138;-82
2023/08/04 10:02:18;;;;;;;;;;;29.60;50.00;;;;;;4960323;28;20023;-82
2023/08/04 10:04:48;;;;;;;9.27;2.42;;;29.50;50.50;;;;;;4958512;29;19914;-83
2023/08/04 10:07:15;;;;;;;8.00;2.28;;;29.50;51.20;;;;;;4958605;28;20043;-82
2023/08/04 10:09:40;;;;;;;;;;;29.70;51.10;;;;;;4958972;28;20405;-82
2023/08/04 10:12:08;;;;;;;5.38;2.13;;;29.80;49.90;;;;;;4943314;29;19910;-79
2023/08/04 10:14:34;;;;;;;14.40;2.22;;;29.70;49.70;;;;;;4962014;28;20027;-80
2023/08/04 10:17:01;;;;;;;8.75;2.65;;;29.90;49.50;;;;;;4962030;28;20034;-85
2023/08/04 10:19:28;;;;;;;7.85;2.65;;;29.80;49.70;;;;;;4960446;28;20046;-84
2023/08/04 10:21:54;;;;;;;7.20;2.75;;;29.80;49.50;;;;;;4976477;28;20118;-82
2023/08/04 10:24:20;;;;;;;8.00;2.55;;;29.80;49.30;;;;;;4958076;29;20031;-84
2023/08/04 10:26:48;;;;;;;7.05;2.78;;;29.60;48.20;;;;;;4941819;29;20039;-84
2023/08/04 10:29:15;;;;;;;5.13;1.80;;;29.60;48.20;;;;;;4958559;28;20028;-84
2023/08/04 10:31:40;;;;;;;;;;;29.70;48.00;;;;;;4943542;29;20367;-84
2023/08/04 10:34:27;;;;;;;6.53;2.58;;;29.70;48.60;;;;;;4954193;28;19918;-84
2023/08/04 10:37:02;;;;;;;6.65;2.17;;;29.70;48.60;;;;;;4957624;29;20406;-83
2023/08/04 10:39:56;;;;;;;6.82;2.30;;;29.90;48.20;;;;;;4958878;29;20058;-84
2023/08/04 10:42:29;;;;;;;11.93;2.13;;;30.00;47.10;;;;;;4961522;28;20429;-84
2023/08/04 10:44:56;;;;;;;4.25;2.00;;;30.00;47.20;;;;;;4955719;28;20031;-84
2023/08/04 10:47:39;;;;;;;9.77;1.95;;;30.00;46.30;;;;;;4953933;29;20031;-84
2023/08/04 10:50:06;;;;;;;8.45;2.40;;;30.00;48.20;;;;;;4954421;29;20032;-84
2023/08/04 10:52:32;;;;;;;;;;;30.00;48.10;;;;;;4955170;29;20015;-84
2023/08/04 10:54:59;;;;;;;5.32;1.80;;;30.00;49.50;;;;;;4938835;29;19910;-84
2023/08/04 10:57:28;;;;;;;7.70;2.08;;;30.00;48.70;;;;;;4937788;29;20031;-84
2023/08/04 10:59:54;;;;;;;6.43;1.75;;;30.00;48.40;;;;;;4954481;29;20118;-84
2023/08/04 11:02:23;;;;;;;;;;;30.00;47.90;;;;;;4954605;29;20027;-84
2023/08/04 11:04:51;;;;;;;8.43;2.28;;;30.00;49.40;;;;;;4937091;29;19923;-84
2023/08/04 11:07:18;;;;;;;4.88;1.95;;;30.00;48.40;;;;;;4969488;28;20476;-85
2023/08/04 11:09:49;;;;;;;6.13;2.25;;;30.10;48.10;;;;;;4954671;29;20165;-84
2023/08/04 11:12:15;;;;;;;8.50;1.90;;;30.30;48.30;;;;;;4951146;29;20114;-84
2023/08/04 11:14:42;;;;;;;6.53;2.90;;;30.40;49.30;;;;;;4947298;29;20031;-83
2023/08/04 11:17:15;;;;;;;6.28;2.33;;;30.60;49.50;;;;;;4936598;29;20039;-84
2023/08/04 11:19:49;;;;;;;7.90;2.88;;;30.70;49.40;;;;;;4955623;28;20034;-84
2023/08/04 11:22:21;;;;;;;5.18;2.15;;;30.80;49.70;;;;;;4951395;29;20221;-84
2023/08/04 11:24:49;;;;;;;6.95;2.45;;;31.00;49.10;;;;;;4935256;29;20032;-84
2023/08/04 11:27:16;;;;;;;13.18;2.90;;;31.10;48.20;;;;;;4947095;29;20410;-85
2023/08/04 11:29:41;;;;;;;;;;;31.10;48.10;;;;;;4944398;29;20039;-85
2023/08/04 11:32:11;;;;;;;5.63;2.47;;;31.10;47.60;;;;;;4948329;29;19911;-84
2023/08/04 11:34:40;;;;;;;10.30;1.80;;;31.10;46.70;;;;;;4943632;29;20032;-84
2023/08/04 11:37:06;;;;;;;6.03;2.10;;;31.10;47.80;;;;;;4946938;29;20031;-84
2023/08/04 11:39:32;;;;;;;6.93;2.05;;;31.00;47.40;;;;;;4921964;29;20042;-84
2023/08/04 11:41:58;;;;;;;5.68;1.85;;;30.90;47.30;;;;;;4954955;28;20027;-84
2023/08/04 11:44:24;;;;;;;9.85;2.20;;;30.90;47.30;;;;;;4934927;29;20810;-84
2023/08/04 11:46:50;;;;;;;7.23;1.73;;;30.90;47.70;;;;;;4949715;29;20098;-84
2023/08/04 11:49:15;;;;;;;21.45;3.45;;;30.90;47.90;;;;;;4950607;29;20822;-84
2023/08/04 11:51:45;;;;;;;7.00;1.60;;;31.00;48.20;;;;;;4951427;28;20023;-85
2023/08/04 11:54:19;;;;;;;5.95;1.63;;;31.10;46.90;;;;;;4951961;28;20026;-84
2023/08/04 11:56:45;;;;;;;6.13;2.33;;;31.10;44.90;;;;;;4949984;29;20546;-84
2023/08/04 11:59:12;;;;;;;6.93;1.60;;;31.20;45.90;;;;;;4946631;29;20036;-84
2023/08/04 12:01:38;;;;;;;7.40;1.33;;;31.30;45.30;;;;;;4952558;29;20082;-84
2023/08/04 12:04:25;;;;;;;4.03;1.40;;;31.20;42.60;;;;;;4953569;29;20114;-85
2023/08/04 12:07:01;;;;;;;6.28;1.77;;;31.10;41.60;;;;;;4968999;28;20054;-85
2023/08/04 12:09:27;;;;;;;2.88;1.42;;;30.90;42.20;;;;;;4954326;28;20071;-84
2023/08/04 12:11:53;;;;;;;6.57;1.52;;;30.90;43.00;;;;;;4950161;29;20398;-85
2023/08/04 12:14:22;;;;;;;5.15;1.83;;;30.90;42.80;;;;;;4938748;29;20031;-84
2023/08/04 12:16:54;;;;;;;3.55;1.48;;;30.90;42.50;;;;;;4947935;29;20219;-84
2023/08/04 12:19:25;;;;;;;5.32;1.52;;;30.90;42.30;;;;;;4952755;29;20027;-84
2023/08/04 12:21:53;;;;;;;7.05;1.83;;;31.00;42.20;;;;;;4922434;29;20474;-84
2023/08/04 12:24:20;;;;;;;4.68;1.40;;;30.90;42.20;;;;;;4949926;29;20387;-84
2023/08/04 12:26:47;;;;;;;5.85;1.30;;;30.90;42.10;;;;;;4961430;28;20027;-84
2023/08/04 12:29:13;;;;;;;3.50;1.50;;;31.00;43.00;;;;;;4950192;29;20128;-84
2023/08/04 12:31:39;;;;;;;5.00;2.00;;;31.00;42.70;;;;;;4968411;28;20402;-84
2023/08/04 12:34:06;;;;;;;6.88;1.95;;;31.00;44.40;;;;;;4954300;28;20030;-84
2023/08/04 12:36:33;;;;;;;8.30;1.95;;;31.10;45.40;;;;;;4949766;29;20059;-84
2023/08/04 12:38:58;;;;;;;11.68;2.38;;;31.20;45.80;;;;;;4927347;29;20508;-84
2023/08/04 12:41:24;;;;;;;4.95;2.45;;;31.10;45.50;;;;;;4934659;29;20534;-84
2023/08/04 12:43:50;;;;;;;12.35;2.38;;;31.00;45.40;;;;;;4949778;29;20027;-84
2023/08/04 12:46:16;;;;;;;5.10;1.90;;;31.10;46.30;;;;;;4942381;29;20039;-84
2023/08/04 12:48:42;;;;;;;10.50;1.90;;;31.10;46.00;;;;;;4949306;29;20023;-84
2023/08/04 12:51:07;;;;;;;5.15;1.80;;;31.10;46.50;;;;;;4952499;29;20038;-84
2023/08/04 12:53:33;;;;;;;4.23;2.10;;;31.00;46.20;;;;;;4953475;28;20031;-85
2023/08/04 12:55:59;;;;;;;9.15;1.90;;;31.00;46.10;;;;;;4948931;29;20283;-84
2023/08/04 12:58:25;;;;;;;8.77;2.80;;;30.90;45.80;;;;;;4949345;29;20027;-84
2023/08/04 13:00:51;;;;;;;10.00;1.85;;;31.00;46.00;;;;;;4948387;29;20032;-84
2023/08/04 13:03:17;;;;;;;6.32;2.17;;;30.90;45.60;;;;;;4933828;29;20347;-84
2023/08/04 13:05:42;;;;;;;8.18;1.85;;;30.90;44.70;;;;;;4933876;29;20037;-84
2023/08/04 13:08:08;;;;;;;4.88;1.67;;;30.90;44.60;;;;;;4953113;29;20032;-85
2023/08/04 13:10:34;;;;;;;7.13;2.33;;;31.00;44.10;;;;;;4949520;29;20506;-84
2023/08/04 13:13:00;;;;;;;7.07;2.00;;;31.00;45.40;;;;;;4949890;29;20446;-84
2023/08/04 13:15:27;;;;;;;10.57;3.45;;;31.00;45.30;;;;;;4953365;29;20031;-84
2023/08/04 13:17:52;;;;;;;;;;;31.00;45.80;;;;;;4968666;28;20035;-84
2023/08/04 13:20:18;;;;;;;4.75;2.03;;;30.90;46.10;;;;;;4952566;28;19957;-84
2023/08/04 13:22:46;;;;;;;8.07;1.77;;;30.80;44.90;;;;;;4952368;29;20405;-84
2023/08/04 13:25:12;;;;;;;9.65;2.65;;;30.90;45.30;;;;;;4936464;29;20078;-84
2023/08/04 13:27:38;;;;;;;7.00;2.55;;;30.90;45.10;;;;;;4953716;28;20102;-84
2023/08/04 13:30:06;;;;;;;7.05;1.83;;;30.90;44.80;;;;;;4951634;29;20100;-84
2023/08/04 13:32:32;;;;;;;8.55;2.03;;;31.00;45.80;;;;;;4936373;29;20058;-84
2023/08/04 13:34:58;;;;;;;4.63;1.63;;;31.10;46.00;;;;;;4953240;28;20106;-84
2023/08/04 13:37:24;;;;;;;6.75;1.42;;;31.30;46.00;;;;;;4953423;28;20394;-84
2023/08/04 13:39:50;;;;;;;5.00;1.77;;;31.30;45.30;;;;;;4951617;29;20068;-84
2023/08/04 13:42:15;;;;;;;7.25;1.70;;;31.50;45.00;;;;;;4952956;28;20274;-84
2023/08/04 13:44:41;;;;;;;8.40;2.22;;;31.50;44.60;;;;;;4933002;29;20410;-84
2023/08/04 13:47:07;;;;;;;5.82;1.55;;;31.50;44.70;;;;;;4936997;29;20106;-84
2023/08/04 13:49:33;;;;;;;6.57;2.00;;;31.60;44.60;;;;;;4964937;28;20027;-84
2023/08/04 13:51:59;;;;;;;5.95;1.90;;;31.70;44.20;;;;;;4949195;29;20078;-85
2023/08/04 13:54:25;;;;;;;5.53;2.03;;;31.70;44.10;;;;;;4948874;29;20026;-84
2023/08/04 13:56:51;;;;;;;6.55;2.33;;;32.00;44.40;;;;;;4960651;29;20032;-81
2023/08/04 13:59:17;;;;;;;13.52;2.30;;;32.00;43.80;;;;;;4963012;29;20079;-81
2023/08/04 14:01:43;;;;;;;9.50;2.40;;;32.00;43.90;;;;;;4965708;29;20027;-81
2023/08/04 14:04:08;;;;;;;4.35;1.48;;;31.80;43.20;;;;;;4966960;28;20027;-81
2023/08/04 14:06:34;;;;;;;8.57;1.98;;;31.60;43.70;;;;;;4967347;28;20082;-80
2023/08/04 14:09:02;;;;;;;11.77;2.55;;;31.50;43.30;;;;;;4969057;28;20055;-80
2023/08/04 14:11:28;;;;;;;5.40;2.28;;;31.40;43.10;;;;;;4968416;28;20036;-81
2023/08/04 14:13:53;;;;;;;4.97;1.73;;;31.30;42.80;;;;;;4968063;29;20062;-82
2023/08/04 14:16:19;;;;;;;7.72;2.10;;;31.30;43.60;;;;;;4969893;28;20185;-81
2023/08/04 14:18:45;;;;;;;5.57;1.77;;;31.40;43.40;;;;;;4964143;29;20030;-79
2023/08/04 14:21:11;;;;;;;4.18;1.63;;;31.40;43.30;;;;;;4982412;28;20039;-78
2023/08/04 14:23:37;;;;;;;8.43;2.80;;;31.60;43.20;;;;;;4982491;28;20034;-79
2023/08/04 14:26:03;;;;;;;8.68;2.17;;;31.60;43.10;;;;;;4981031;28;20035;-79
2023/08/04 14:28:29;;;;;;;3.85;1.40;;;31.60;43.40;;;;;;4978722;28;20019;-78
2023/08/04 14:30:55;;;;;;;4.68;1.80;;;31.40;41.80;;;;;;4965525;28;20032;-80
2023/08/04 14:33:21;;;;;;;;;;;31.30;42.50;;;;;;4963736;28;20027;-83
2023/08/04 14:35:48;;;;;;;3.10;1.30;;;31.20;42.00;;;;;;4943183;29;19965;-87
2023/08/04 14:38:15;;;;;;;6.13;1.80;;;31.20;42.60;;;;;;4961519;29;20027;-87
2023/08/04 14:40:41;;;;;;;5.50;1.50;;;31.40;42.90;;;;;;4961600;29;20038;-87
2023/08/04 14:43:07;;;;;;;11.60;2.10;;;31.70;41.60;;;;;;4963877;28;20071;-87
2023/08/04 14:45:33;;;;;;;8.35;2.47;;;32.10;42.30;;;;;;4940476;29;20066;-87
2023/08/04 14:47:59;;;;;;;11.65;2.50;;;32.50;41.80;;;;;;4939106;29;20122;-87
2023/08/04 14:50:24;;;;;;;4.85;1.90;;;32.90;41.30;;;;;;4939063;29;20054;-86